Pepinster, Belgium
Current Conditions -  °F | °C
As of 8:50 AM on Sunday 26 Oct 2014 (Local Time) from EBLG Reporting Station
Broken Clouds Broken Clouds  
Wind Chill: 10°   Ceiling: 3600
Heat Index: 10°   Visibility: 6mi
Dew Point:   Wind: 6mph
Humidity: 94%   Direction: 160°SSE
Pressure: 30.27"   Gusts: NA
Location:  50.57°N, 5.8°E
Report Text: EBLG 260650Z 16005KT 9999 BKN036 10/09 Q1025 NOSIG
Loading
Personal Weather Stations






























Interactive Weather Map
Tropical Storm Tracking
New forecast layout! Learn more

10-Day Weather Forecast

Advertisements
Track Severe Weather on mobile